sensor_id;sensor_type;location;lat;lon;timestamp;P1;durP1;ratioP1;P2;durP2;ratioP2
9801;SDS011;4940;50.900;4.672;2023-07-09T00:02:19;28.33;;;26.02;;
9801;SDS011;4940;50.900;4.672;2023-07-09T00:04:47;26.30;;;24.45;;
9801;SDS011;4940;50.900;4.672;2023-07-09T00:07:18;28.83;;;26.70;;
9801;SDS011;4940;50.900;4.672;2023-07-09T00:09:54;28.10;;;25.90;;
9801;SDS011;4940;50.900;4.672;2023-07-09T00:12:22;28.70;;;26.63;;
9801;SDS011;4940;50.900;4.672;2023-07-09T00:14:50;30.25;;;28.13;;
9801;SDS011;4940;50.900;4.672;2023-07-09T00:17:18;29.10;;;27.10;;
9801;SDS011;4940;50.900;4.672;2023-07-09T00:19:50;30.00;;;28.10;;
9801;SDS011;4940;50.900;4.672;2023-07-09T00:22:18;30.40;;;28.40;;
9801;SDS011;4940;50.900;4.672;2023-07-09T00:24:46;31.27;;;29.23;;
9801;SDS011;4940;50.900;4.672;2023-07-09T00:27:17;26.30;;;24.50;;
9801;SDS011;4940;50.900;4.672;2023-07-09T00:29:46;31.98;;;29.88;;
9801;SDS011;4940;50.900;4.672;2023-07-09T00:32:14;35.50;;;33.30;;
9801;SDS011;4940;50.900;4.672;2023-07-09T00:34:45;38.25;;;35.75;;
9801;SDS011;4940;50.900;4.672;2023-07-09T00:37:14;34.63;;;32.13;;
9801;SDS011;4940;50.900;4.672;2023-07-09T00:39:43;36.35;;;33.85;;
9801;SDS011;4940;50.900;4.672;2023-07-09T00:42:12;38.03;;;35.42;;
9801;SDS011;4940;50.900;4.672;2023-07-09T00:44:44;33.42;;;31.02;;
9801;SDS011;4940;50.900;4.672;2023-07-09T00:47:15;34.50;;;32.17;;
9801;SDS011;4940;50.900;4.672;2023-07-09T00:49:49;32.10;;;29.95;;
9801;SDS011;4940;50.900;4.672;2023-07-09T00:52:37;33.20;;;31.17;;
9801;SDS011;4940;50.900;4.672;2023-07-09T00:55:11;33.90;;;31.55;;
9801;SDS011;4940;50.900;4.672;2023-07-09T00:57:41;27.00;;;25.23;;
9801;SDS011;4940;50.900;4.672;2023-07-09T01:00:22;21.80;;;20.27;;
9801;SDS011;4940;50.900;4.672;2023-07-09T01:02:53;23.00;;;21.40;;
9801;SDS011;4940;50.900;4.672;2023-07-09T01:05:21;27.27;;;25.38;;
9801;SDS011;4940;50.900;4.672;2023-07-09T01:07:48;28.08;;;26.17;;
9801;SDS011;4940;50.900;4.672;2023-07-09T01:10:16;26.05;;;24.08;;
9801;SDS011;4940;50.900;4.672;2023-07-09T01:12:45;27.23;;;25.52;;
9801;SDS011;4940;50.900;4.672;2023-07-09T01:15:14;28.45;;;26.63;;
9801;SDS011;4940;50.900;4.672;2023-07-09T01:17:43;26.45;;;24.52;;
9801;SDS011;4940;50.900;4.672;2023-07-09T01:20:14;25.65;;;24.00;;
9801;SDS011;4940;50.900;4.672;2023-07-09T01:22:48;25.73;;;23.92;;
9801;SDS011;4940;50.900;4.672;2023-07-09T01:25:20;24.40;;;22.52;;
9801;SDS011;4940;50.900;4.672;2023-07-09T01:27:48;21.90;;;20.15;;
9801;SDS011;4940;50.900;4.672;2023-07-09T01:30:16;23.60;;;21.67;;
9801;SDS011;4940;50.900;4.672;2023-07-09T01:32:50;24.20;;;22.45;;
9801;SDS011;4940;50.900;4.672;2023-07-09T01:35:21;21.35;;;19.92;;
9801;SDS011;4940;50.900;4.672;2023-07-09T01:37:50;22.08;;;20.25;;
9801;SDS011;4940;50.900;4.672;2023-07-09T01:40:19;21.00;;;19.38;;
9801;SDS011;4940;50.900;4.672;2023-07-09T01:42:48;21.40;;;19.95;;
9801;SDS011;4940;50.900;4.672;2023-07-09T01:45:16;19.35;;;17.98;;
9801;SDS011;4940;50.900;4.672;2023-07-09T01:47:45;22.05;;;20.35;;
9801;SDS011;4940;50.900;4.672;2023-07-09T01:50:12;17.73;;;16.52;;
9801;SDS011;4940;50.900;4.672;2023-07-09T01:52:42;17.90;;;16.45;;
9801;SDS011;4940;50.900;4.672;2023-07-09T01:55:13;18.35;;;17.05;;
9801;SDS011;4940;50.900;4.672;2023-07-09T01:57:42;15.93;;;14.57;;
9801;SDS011;4940;50.900;4.672;2023-07-09T02:00:12;18.10;;;16.65;;
9801;SDS011;4940;50.900;4.672;2023-07-09T02:02:40;16.85;;;15.65;;
9801;SDS011;4940;50.900;4.672;2023-07-09T02:05:09;16.20;;;14.38;;
9801;SDS011;4940;50.900;4.672;2023-07-09T02:07:38;15.93;;;14.68;;
9801;SDS011;4940;50.900;4.672;2023-07-09T02:10:06;11.30;;;10.38;;
9801;SDS011;4940;50.900;4.672;2023-07-09T02:12:36;11.65;;;9.98;;
9801;SDS011;4940;50.900;4.672;2023-07-09T02:15:03;12.88;;;11.73;;
9801;SDS011;4940;50.900;4.672;2023-07-09T02:17:32;12.68;;;11.57;;
9801;SDS011;4940;50.900;4.672;2023-07-09T02:19:59;12.80;;;11.75;;
9801;SDS011;4940;50.900;4.672;2023-07-09T02:22:27;13.65;;;12.35;;
9801;SDS011;4940;50.900;4.672;2023-07-09T02:24:54;13.75;;;12.65;;
9801;SDS011;4940;50.900;4.672;2023-07-09T02:27:21;11.63;;;10.73;;
9801;SDS011;4940;50.900;4.672;2023-07-09T02:29:50;12.18;;;11.18;;
9801;SDS011;4940;50.900;4.672;2023-07-09T02:32:18;11.95;;;10.95;;
9801;SDS011;4940;50.900;4.672;2023-07-09T02:34:47;13.95;;;12.80;;
9801;SDS011;4940;50.900;4.672;2023-07-09T02:37:18;13.57;;;12.48;;
9801;SDS011;4940;50.900;4.672;2023-07-09T02:39:46;11.73;;;10.73;;
9801;SDS011;4940;50.900;4.672;2023-07-09T02:42:14;14.05;;;12.70;;
9801;SDS011;4940;50.900;4.672;2023-07-09T02:44:43;13.07;;;11.88;;
9801;SDS011;4940;50.900;4.672;2023-07-09T02:47:12;14.20;;;11.07;;
9801;SDS011;4940;50.900;4.672;2023-07-09T02:49:40;12.18;;;11.25;;
9801;SDS011;4940;50.900;4.672;2023-07-09T02:52:07;11.38;;;10.48;;
9801;SDS011;4940;50.900;4.672;2023-07-09T02:54:35;12.48;;;11.43;;
9801;SDS011;4940;50.900;4.672;2023-07-09T02:57:02;13.85;;;11.98;;
9801;SDS011;4940;50.900;4.672;2023-07-09T02:59:30;10.52;;;9.43;;
9801;SDS011;4940;50.900;4.672;2023-07-09T03:01:58;12.18;;;10.88;;
9801;SDS011;4940;50.900;4.672;2023-07-09T03:04:27;12.27;;;11.18;;
9801;SDS011;4940;50.900;4.672;2023-07-09T03:06:56;11.10;;;10.00;;
9801;SDS011;4940;50.900;4.672;2023-07-09T03:09:25;11.38;;;10.57;;
9801;SDS011;4940;50.900;4.672;2023-07-09T03:11:53;11.38;;;10.48;;
9801;SDS011;4940;50.900;4.672;2023-07-09T03:14:20;11.68;;;10.77;;
9801;SDS011;4940;50.900;4.672;2023-07-09T03:16:48;12.30;;;11.30;;
9801;SDS011;4940;50.900;4.672;2023-07-09T03:19:15;12.50;;;11.30;;
9801;SDS011;4940;50.900;4.672;2023-07-09T03:21:44;12.20;;;10.95;;
9801;SDS011;4940;50.900;4.672;2023-07-09T03:24:11;13.45;;;12.35;;
9801;SDS011;4940;50.900;4.672;2023-07-09T03:26:40;13.80;;;12.70;;
9801;SDS011;4940;50.900;4.672;2023-07-09T03:29:07;13.73;;;12.52;;
9801;SDS011;4940;50.900;4.672;2023-07-09T03:31:34;16.05;;;15.00;;
9801;SDS011;4940;50.900;4.672;2023-07-09T03:34:02;14.73;;;13.55;;
9801;SDS011;4940;50.900;4.672;2023-07-09T03:36:29;15.43;;;14.32;;
9801;SDS011;4940;50.900;4.672;2023-07-09T03:38:58;14.35;;;13.18;;
9801;SDS011;4940;50.900;4.672;2023-07-09T03:41:25;15.77;;;14.57;;
9801;SDS011;4940;50.900;4.672;2023-07-09T03:43:53;14.10;;;12.77;;
9801;SDS011;4940;50.900;4.672;2023-07-09T03:46:20;17.50;;;16.15;;
9801;SDS011;4940;50.900;4.672;2023-07-09T03:48:47;17.77;;;16.33;;
9801;SDS011;4940;50.900;4.672;2023-07-09T03:51:15;15.75;;;14.60;;
9801;SDS011;4940;50.900;4.672;2023-07-09T03:53:43;17.02;;;15.45;;
9801;SDS011;4940;50.900;4.672;2023-07-09T03:56:12;15.18;;;12.77;;
9801;SDS011;4940;50.900;4.672;2023-07-09T03:58:39;13.68;;;12.60;;
9801;SDS011;4940;50.900;4.672;2023-07-09T04:01:06;12.50;;;11.40;;
9801;SDS011;4940;50.900;4.672;2023-07-09T04:03:33;13.32;;;12.32;;
9801;SDS011;4940;50.900;4.672;2023-07-09T04:06:01;12.70;;;11.55;;
9801;SDS011;4940;50.900;4.672;2023-07-09T04:08:28;12.48;;;10.70;;
9801;SDS011;4940;50.900;4.672;2023-07-09T04:10:58;10.52;;;9.65;;
9801;SDS011;4940;50.900;4.672;2023-07-09T04:13:27;11.55;;;10.55;;
9801;SDS011;4940;50.900;4.672;2023-07-09T04:15:55;11.73;;;10.63;;
9801;SDS011;4940;50.900;4.672;2023-07-09T04:18:22;11.90;;;10.90;;
9801;SDS011;4940;50.900;4.672;2023-07-09T04:20:49;10.93;;;10.13;;
9801;SDS011;4940;50.900;4.672;2023-07-09T04:23:17;10.75;;;9.88;;
9801;SDS011;4940;50.900;4.672;2023-07-09T04:25:45;10.30;;;9.30;;
9801;SDS011;4940;50.900;4.672;2023-07-09T04:28:12;11.07;;;9.93;;
9801;SDS011;4940;50.900;4.672;2023-07-09T04:30:46;10.38;;;9.45;;
9801;SDS011;4940;50.900;4.672;2023-07-09T04:33:14;10.65;;;9.75;;
9801;SDS011;4940;50.900;4.672;2023-07-09T04:35:43;10.50;;;9.50;;
9801;SDS011;4940;50.900;4.672;2023-07-09T04:38:11;10.60;;;9.55;;
9801;SDS011;4940;50.900;4.672;2023-07-09T04:40:39;11.13;;;10.00;;
9801;SDS011;4940;50.900;4.672;2023-07-09T04:43:06;12.80;;;10.75;;
9801;SDS011;4940;50.900;4.672;2023-07-09T04:45:34;11.82;;;10.77;;
9801;SDS011;4940;50.900;4.672;2023-07-09T04:48:03;12.32;;;11.15;;
9801;SDS011;4940;50.900;4.672;2023-07-09T04:50:31;11.88;;;10.93;;
9801;SDS011;4940;50.900;4.672;2023-07-09T04:52:58;9.65;;;8.77;;
9801;SDS011;4940;50.900;4.672;2023-07-09T04:55:26;9.80;;;7.57;;
9801;SDS011;4940;50.900;4.672;2023-07-09T04:57:53;9.02;;;7.07;;
9801;SDS011;4940;50.900;4.672;2023-07-09T05:00:21;8.95;;;7.88;;
9801;SDS011;4940;50.900;4.672;2023-07-09T05:02:48;7.90;;;7.20;;
9801;SDS011;4940;50.900;4.672;2023-07-09T05:05:17;8.00;;;7.22;;
9801;SDS011;4940;50.900;4.672;2023-07-09T05:07:44;15.13;;;12.63;;
9801;SDS011;4940;50.900;4.672;2023-07-09T05:10:12;12.07;;;9.65;;
9801;SDS011;4940;50.900;4.672;2023-07-09T05:12:47;8.68;;;7.85;;
9801;SDS011;4940;50.900;4.672;2023-07-09T05:15:15;9.18;;;8.27;;
9801;SDS011;4940;50.900;4.672;2023-07-09T05:17:43;8.77;;;8.07;;
9801;SDS011;4940;50.900;4.672;2023-07-09T05:20:12;8.65;;;7.93;;
9801;SDS011;4940;50.900;4.672;2023-07-09T05:22:41;8.57;;;7.85;;
9801;SDS011;4940;50.900;4.672;2023-07-09T05:25:08;8.20;;;7.30;;
9801;SDS011;4940;50.900;4.672;2023-07-09T05:27:36;7.40;;;6.70;;
9801;SDS011;4940;50.900;4.672;2023-07-09T05:30:03;7.53;;;6.80;;
9801;SDS011;4940;50.900;4.672;2023-07-09T05:32:32;7.95;;;6.32;;
9801;SDS011;4940;50.900;4.672;2023-07-09T05:34:59;6.72;;;6.13;;
9801;SDS011;4940;50.900;4.672;2023-07-09T05:37:26;9.32;;;6.20;;
9801;SDS011;4940;50.900;4.672;2023-07-09T05:39:55;8.35;;;6.00;;
9801;SDS011;4940;50.900;4.672;2023-07-09T05:42:22;8.90;;;5.30;;
9801;SDS011;4940;50.900;4.672;2023-07-09T05:44:50;4.75;;;4.35;;
9801;SDS011;4940;50.900;4.672;2023-07-09T05:47:18;6.68;;;3.88;;
9801;SDS011;4940;50.900;4.672;2023-07-09T05:49:45;7.05;;;4.10;;
9801;SDS011;4940;50.900;4.672;2023-07-09T05:52:14;4.22;;;3.67;;
9801;SDS011;4940;50.900;4.672;2023-07-09T05:54:42;7.93;;;4.28;;
9801;SDS011;4940;50.900;4.672;2023-07-09T05:57:11;8.85;;;6.13;;
9801;SDS011;4940;50.900;4.672;2023-07-09T05:59:38;8.25;;;6.18;;
9801;SDS011;4940;50.900;4.672;2023-07-09T06:02:07;9.90;;;4.65;;
9801;SDS011;4940;50.900;4.672;2023-07-09T06:04:37;5.15;;;4.63;;
9801;SDS011;4940;50.900;4.672;2023-07-09T06:07:05;8.05;;;4.45;;
9801;SDS011;4940;50.900;4.672;2023-07-09T06:09:32;6.80;;;4.50;;
9801;SDS011;4940;50.900;4.672;2023-07-09T06:12:00;5.05;;;4.20;;
9801;SDS011;4940;50.900;4.672;2023-07-09T06:14:28;6.28;;;4.15;;
9801;SDS011;4940;50.900;4.672;2023-07-09T06:16:57;6.07;;;4.50;;
9801;SDS011;4940;50.900;4.672;2023-07-09T06:19:25;5.80;;;4.28;;
9801;SDS011;4940;50.900;4.672;2023-07-09T06:21:52;5.35;;;4.57;;
9801;SDS011;4940;50.900;4.672;2023-07-09T06:24:21;5.35;;;4.43;;
9801;SDS011;4940;50.900;4.672;2023-07-09T06:26:48;7.28;;;4.75;;
9801;SDS011;4940;50.900;4.672;2023-07-09T06:29:16;6.15;;;5.25;;
9801;SDS011;4940;50.900;4.672;2023-07-09T06:31:44;6.28;;;4.60;;
9801;SDS011;4940;50.900;4.672;2023-07-09T06:34:12;7.70;;;4.95;;
9801;SDS011;4940;50.900;4.672;2023-07-09T06:36:39;7.10;;;5.13;;
9801;SDS011;4940;50.900;4.672;2023-07-09T06:39:06;6.70;;;5.00;;
9801;SDS011;4940;50.900;4.672;2023-07-09T06:41:35;7.60;;;4.93;;
9801;SDS011;4940;50.900;4.672;2023-07-09T06:44:04;5.57;;;4.95;;
9801;SDS011;4940;50.900;4.672;2023-07-09T06:46:31;5.65;;;4.90;;
9801;SDS011;4940;50.900;4.672;2023-07-09T06:49:00;6.18;;;4.88;;
9801;SDS011;4940;50.900;4.672;2023-07-09T06:51:27;7.90;;;5.03;;
9801;SDS011;4940;50.900;4.672;2023-07-09T06:53:55;8.07;;;4.88;;
9801;SDS011;4940;50.900;4.672;2023-07-09T06:56:23;5.63;;;5.05;;
9801;SDS011;4940;50.900;4.672;2023-07-09T06:58:50;6.03;;;4.70;;
9801;SDS011;4940;50.900;4.672;2023-07-09T07:01:17;6.75;;;5.35;;
9801;SDS011;4940;50.900;4.672;2023-07-09T07:03:45;5.88;;;5.03;;
9801;SDS011;4940;50.900;4.672;2023-07-09T07:06:13;7.35;;;5.32;;
9801;SDS011;4940;50.900;4.672;2023-07-09T07:08:41;7.22;;;5.18;;
9801;SDS011;4940;50.900;4.672;2023-07-09T07:11:08;5.72;;;4.88;;
9801;SDS011;4940;50.900;4.672;2023-07-09T07:13:36;5.30;;;4.75;;
9801;SDS011;4940;50.900;4.672;2023-07-09T07:16:05;8.63;;;5.07;;
9801;SDS011;4940;50.900;4.672;2023-07-09T07:18:34;5.60;;;4.53;;
9801;SDS011;4940;50.900;4.672;2023-07-09T07:21:02;6.40;;;4.45;;
9801;SDS011;4940;50.900;4.672;2023-07-09T07:23:31;6.88;;;4.55;;
9801;SDS011;4940;50.900;4.672;2023-07-09T07:25:58;6.22;;;4.95;;
9801;SDS011;4940;50.900;4.672;2023-07-09T07:28:25;5.25;;;4.82;;
9801;SDS011;4940;50.900;4.672;2023-07-09T07:30:59;6.70;;;5.03;;
9801;SDS011;4940;50.900;4.672;2023-07-09T07:33:26;8.05;;;5.13;;
9801;SDS011;4940;50.900;4.672;2023-07-09T07:35:54;9.18;;;4.85;;
9801;SDS011;4940;50.900;4.672;2023-07-09T07:38:21;5.80;;;5.20;;
9801;SDS011;4940;50.900;4.672;2023-07-09T07:40:50;8.65;;;5.10;;
9801;SDS011;4940;50.900;4.672;2023-07-09T07:43:18;6.15;;;5.03;;
9801;SDS011;4940;50.900;4.672;2023-07-09T07:45:45;6.20;;;5.53;;
9801;SDS011;4940;50.900;4.672;2023-07-09T07:48:14;5.70;;;5.20;;
9801;SDS011;4940;50.900;4.672;2023-07-09T07:50:41;6.07;;;5.47;;
9801;SDS011;4940;50.900;4.672;2023-07-09T07:53:11;7.32;;;5.47;;
9801;SDS011;4940;50.900;4.672;2023-07-09T07:55:38;6.45;;;5.82;;
9801;SDS011;4940;50.900;4.672;2023-07-09T07:58:10;6.80;;;5.25;;
9801;SDS011;4940;50.900;4.672;2023-07-09T08:00:38;6.30;;;5.70;;
9801;SDS011;4940;50.900;4.672;2023-07-09T08:03:06;6.28;;;5.40;;
9801;SDS011;4940;50.900;4.672;2023-07-09T08:05:33;6.43;;;5.30;;
9801;SDS011;4940;50.900;4.672;2023-07-09T08:08:00;5.88;;;5.30;;
9801;SDS011;4940;50.900;4.672;2023-07-09T08:10:28;8.40;;;5.47;;
9801;SDS011;4940;50.900;4.672;2023-07-09T08:12:55;6.22;;;5.63;;
9801;SDS011;4940;50.900;4.672;2023-07-09T08:15:24;7.72;;;5.63;;
9801;SDS011;4940;50.900;4.672;2023-07-09T08:17:51;6.00;;;5.43;;
9801;SDS011;4940;50.900;4.672;2023-07-09T08:20:19;7.00;;;6.10;;
9801;SDS011;4940;50.900;4.672;2023-07-09T08:22:46;8.18;;;5.75;;
9801;SDS011;4940;50.900;4.672;2023-07-09T08:25:13;11.18;;;5.97;;
9801;SDS011;4940;50.900;4.672;2023-07-09T08:27:41;6.32;;;5.88;;
9801;SDS011;4940;50.900;4.672;2023-07-09T08:30:08;6.68;;;6.07;;
9801;SDS011;4940;50.900;4.672;2023-07-09T08:32:37;7.47;;;6.60;;
9801;SDS011;4940;50.900;4.672;2023-07-09T08:35:05;7.22;;;6.53;;
9801;SDS011;4940;50.900;4.672;2023-07-09T08:37:32;12.10;;;6.53;;
9801;SDS011;4940;50.900;4.672;2023-07-09T08:40:00;10.38;;;7.05;;
9801;SDS011;4940;50.900;4.672;2023-07-09T08:42:29;8.82;;;7.07;;
9801;SDS011;4940;50.900;4.672;2023-07-09T08:45:04;8.57;;;7.55;;
9801;SDS011;4940;50.900;4.672;2023-07-09T08:47:42;20.83;;;12.40;;
9801;SDS011;4940;50.900;4.672;2023-07-09T08:50:18;75.32;;;30.55;;
9801;SDS011;4940;50.900;4.672;2023-07-09T08:52:49;17.55;;;11.00;;
9801;SDS011;4940;50.900;4.672;2023-07-09T08:55:18;22.23;;;12.43;;
9801;SDS011;4940;50.900;4.672;2023-07-09T08:57:48;17.58;;;9.35;;
9801;SDS011;4940;50.900;4.672;2023-07-09T09:00:21;14.45;;;10.88;;
9801;SDS011;4940;50.900;4.672;2023-07-09T09:02:58;11.70;;;8.65;;
9801;SDS011;4940;50.900;4.672;2023-07-09T09:05:29;30.17;;;15.60;;
9801;SDS011;4940;50.900;4.672;2023-07-09T09:08:02;45.58;;;18.92;;
9801;SDS011;4940;50.900;4.672;2023-07-09T09:10:33;11.00;;;9.45;;
9801;SDS011;4940;50.900;4.672;2023-07-09T09:13:09;21.58;;;13.50;;
9801;SDS011;4940;50.900;4.672;2023-07-09T09:15:38;12.60;;;11.50;;
9801;SDS011;4940;50.900;4.672;2023-07-09T09:18:19;12.18;;;10.48;;
9801;SDS011;4940;50.900;4.672;2023-07-09T09:20:49;12.93;;;11.23;;
9801;SDS011;4940;50.900;4.672;2023-07-09T09:23:21;13.75;;;11.35;;
9801;SDS011;4940;50.900;4.672;2023-07-09T09:25:52;14.95;;;13.18;;
9801;SDS011;4940;50.900;4.672;2023-07-09T09:28:21;13.65;;;12.40;;
9801;SDS011;4940;50.900;4.672;2023-07-09T09:30:50;15.73;;;14.13;;
9801;SDS011;4940;50.900;4.672;2023-07-09T09:33:19;16.08;;;13.45;;
9801;SDS011;4940;50.900;4.672;2023-07-09T09:35:46;14.07;;;12.60;;
9801;SDS011;4940;50.900;4.672;2023-07-09T09:38:16;14.90;;;13.38;;
9801;SDS011;4940;50.900;4.672;2023-07-09T09:40:45;16.67;;;13.90;;
9801;SDS011;4940;50.900;4.672;2023-07-09T09:43:14;17.75;;;15.90;;
9801;SDS011;4940;50.900;4.672;2023-07-09T09:45:44;16.13;;;14.40;;
9801;SDS011;4940;50.900;4.672;2023-07-09T09:48:14;17.33;;;13.38;;
9801;SDS011;4940;50.900;4.672;2023-07-09T09:50:44;17.80;;;16.10;;
9801;SDS011;4940;50.900;4.672;2023-07-09T09:53:16;17.70;;;15.02;;
9801;SDS011;4940;50.900;4.672;2023-07-09T09:55:46;16.52;;;14.75;;
9801;SDS011;4940;50.900;4.672;2023-07-09T09:58:15;15.20;;;13.73;;
9801;SDS011;4940;50.900;4.672;2023-07-09T10:00:47;14.90;;;13.35;;
9801;SDS011;4940;50.900;4.672;2023-07-09T10:03:17;16.42;;;14.73;;
9801;SDS011;4940;50.900;4.672;2023-07-09T10:05:48;21.27;;;16.10;;
9801;SDS011;4940;50.900;4.672;2023-07-09T10:08:22;18.17;;;14.82;;
9801;SDS011;4940;50.900;4.672;2023-07-09T10:10:57;15.25;;;12.70;;
9801;SDS011;4940;50.900;4.672;2023-07-09T10:13:35;17.60;;;14.93;;
9801;SDS011;4940;50.900;4.672;2023-07-09T10:16:11;15.48;;;12.93;;
9801;SDS011;4940;50.900;4.672;2023-07-09T10:18:48;17.63;;;14.35;;
9801;SDS011;4940;50.900;4.672;2023-07-09T10:21:24;19.05;;;16.50;;
9801;SDS011;4940;50.900;4.672;2023-07-09T10:24:02;17.90;;;16.05;;
9801;SDS011;4940;50.900;4.672;2023-07-09T10:26:39;19.08;;;17.02;;
9801;SDS011;4940;50.900;4.672;2023-07-09T10:29:20;17.83;;;15.98;;
9801;SDS011;4940;50.900;4.672;2023-07-09T10:32:02;17.70;;;15.38;;
9801;SDS011;4940;50.900;4.672;2023-07-09T10:34:41;19.65;;;17.65;;
9801;SDS011;4940;50.900;4.672;2023-07-09T10:37:21;20.38;;;18.27;;
9801;SDS011;4940;50.900;4.672;2023-07-09T10:40:00;20.48;;;18.00;;
9801;SDS011;4940;50.900;4.672;2023-07-09T10:42:32;21.33;;;19.02;;
9801;SDS011;4940;50.900;4.672;2023-07-09T10:45:02;22.30;;;19.58;;
9801;SDS011;4940;50.900;4.672;2023-07-09T10:47:36;24.13;;;20.33;;
9801;SDS011;4940;50.900;4.672;2023-07-09T10:50:09;22.33;;;19.95;;
9801;SDS011;4940;50.900;4.672;2023-07-09T10:52:44;23.48;;;20.30;;
9801;SDS011;4940;50.900;4.672;2023-07-09T10:55:16;21.20;;;19.05;;
9801;SDS011;4940;50.900;4.672;2023-07-09T10:57:48;21.25;;;19.08;;
9801;SDS011;4940;50.900;4.672;2023-07-09T11:00:24;20.70;;;17.88;;
9801;SDS011;4940;50.900;4.672;2023-07-09T11:03:00;24.17;;;18.60;;
9801;SDS011;4940;50.900;4.672;2023-07-09T11:05:30;18.55;;;16.10;;
9801;SDS011;4940;50.900;4.672;2023-07-09T11:08:00;18.77;;;15.13;;
9801;SDS011;4940;50.900;4.672;2023-07-09T11:10:32;18.95;;;14.65;;
9801;SDS011;4940;50.900;4.672;2023-07-09T11:13:02;17.38;;;13.73;;
9801;SDS011;4940;50.900;4.672;2023-07-09T11:15:36;16.00;;;13.20;;
9801;SDS011;4940;50.900;4.672;2023-07-09T11:18:06;11.93;;;10.60;;
9801;SDS011;4940;50.900;4.672;2023-07-09T11:20:41;11.07;;;8.63;;
9801;SDS011;4940;50.900;4.672;2023-07-09T11:23:18;12.27;;;8.25;;
9801;SDS011;4940;50.900;4.672;2023-07-09T11:25:47;9.57;;;7.75;;
9801;SDS011;4940;50.900;4.672;2023-07-09T11:28:16;8.38;;;7.47;;
9801;SDS011;4940;50.900;4.672;2023-07-09T11:30:47;9.75;;;7.82;;
9801;SDS011;4940;50.900;4.672;2023-07-09T11:33:16;10.57;;;7.32;;
9801;SDS011;4940;50.900;4.672;2023-07-09T11:35:45;7.57;;;6.72;;
9801;SDS011;4940;50.900;4.672;2023-07-09T11:38:15;8.77;;;6.57;;
9801;SDS011;4940;50.900;4.672;2023-07-09T11:40:46;9.23;;;5.68;;
9801;SDS011;4940;50.900;4.672;2023-07-09T11:43:25;6.00;;;5.40;;
9801;SDS011;4940;50.900;4.672;2023-07-09T11:45:55;8.18;;;5.95;;
9801;SDS011;4940;50.900;4.672;2023-07-09T11:48:28;7.13;;;5.40;;
9801;SDS011;4940;50.900;4.672;2023-07-09T11:51:00;8.40;;;4.70;;
9801;SDS011;4940;50.900;4.672;2023-07-09T11:53:34;5.45;;;4.85;;
9801;SDS011;4940;50.900;4.672;2023-07-09T11:56:07;8.57;;;4.80;;
9801;SDS011;4940;50.900;4.672;2023-07-09T11:58:35;7.72;;;4.57;;
9801;SDS011;4940;50.900;4.672;2023-07-09T12:01:02;4.80;;;4.22;;
9801;SDS011;4940;50.900;4.672;2023-07-09T12:03:40;5.88;;;4.45;;
9801;SDS011;4940;50.900;4.672;2023-07-09T12:06:14;9.65;;;4.45;;
9801;SDS011;4940;50.900;4.672;2023-07-09T12:08:46;6.93;;;4.43;;
9801;SDS011;4940;50.900;4.672;2023-07-09T12:11:18;5.70;;;4.20;;
9801;SDS011;4940;50.900;4.672;2023-07-09T12:13:49;6.85;;;4.40;;
9801;SDS011;4940;50.900;4.672;2023-07-09T12:16:20;5.28;;;4.32;;
9801;SDS011;4940;50.900;4.672;2023-07-09T12:18:49;7.25;;;4.13;;
9801;SDS011;4940;50.900;4.672;2023-07-09T12:21:17;5.57;;;4.00;;
9801;SDS011;4940;50.900;4.672;2023-07-09T12:23:46;4.53;;;3.75;;
9801;SDS011;4940;50.900;4.672;2023-07-09T12:26:14;5.80;;;4.93;;
9801;SDS011;4940;50.900;4.672;2023-07-09T12:28:43;6.75;;;4.10;;
9801;SDS011;4940;50.900;4.672;2023-07-09T12:31:16;4.35;;;3.95;;
9801;SDS011;4940;50.900;4.672;2023-07-09T12:33:46;5.85;;;4.30;;
9801;SDS011;4940;50.900;4.672;2023-07-09T12:36:15;4.35;;;3.95;;
9801;SDS011;4940;50.900;4.672;2023-07-09T12:38:45;4.63;;;3.60;;
9801;SDS011;4940;50.900;4.672;2023-07-09T12:41:18;12.13;;;5.00;;
9801;SDS011;4940;50.900;4.672;2023-07-09T13:18:10;10.15;;;8.98;;
9801;SDS011;4940;50.900;4.672;2023-07-09T13:20:39;19.40;;;18.02;;
9801;SDS011;4940;50.900;4.672;2023-07-09T13:23:10;29.05;;;27.17;;
9801;SDS011;4940;50.900;4.672;2023-07-09T13:25:40;32.45;;;30.05;;
9801;SDS011;4940;50.900;4.672;2023-07-09T13:28:10;36.08;;;33.58;;
9801;SDS011;4940;50.900;4.672;2023-07-09T13:30:51;35.60;;;33.05;;
9801;SDS011;4940;50.900;4.672;2023-07-09T13:33:21;35.35;;;32.90;;
9801;SDS011;4940;50.900;4.672;2023-07-09T13:35:48;38.95;;;36.20;;
9801;SDS011;4940;50.900;4.672;2023-07-09T13:38:19;36.47;;;33.78;;
9801;SDS011;4940;50.900;4.672;2023-07-09T13:40:48;37.05;;;34.33;;
9801;SDS011;4940;50.900;4.672;2023-07-09T13:43:18;39.53;;;36.63;;
9801;SDS011;4940;50.900;4.672;2023-07-09T13:45:48;37.95;;;35.05;;
9801;SDS011;4940;50.900;4.672;2023-07-09T13:48:16;36.42;;;33.55;;
9801;SDS011;4940;50.900;4.672;2023-07-09T13:50:47;37.10;;;34.28;;
9801;SDS011;4940;50.900;4.672;2023-07-09T13:53:16;37.20;;;34.60;;
9801;SDS011;4940;50.900;4.672;2023-07-09T13:55:45;34.58;;;32.28;;
9801;SDS011;4940;50.900;4.672;2023-07-09T13:58:15;34.30;;;31.80;;
9801;SDS011;4940;50.900;4.672;2023-07-09T14:00:44;35.33;;;32.92;;
9801;SDS011;4940;50.900;4.672;2023-07-09T14:03:14;31.92;;;29.77;;
9801;SDS011;4940;50.900;4.672;2023-07-09T14:05:44;28.30;;;26.48;;
9801;SDS011;4940;50.900;4.672;2023-07-09T14:08:13;24.02;;;22.25;;
9801;SDS011;4940;50.900;4.672;2023-07-09T14:10:41;23.20;;;21.50;;
9801;SDS011;4940;50.900;4.672;2023-07-09T14:13:09;21.17;;;19.58;;
9801;SDS011;4940;50.900;4.672;2023-07-09T14:15:40;19.75;;;18.25;;
9801;SDS011;4940;50.900;4.672;2023-07-09T14:18:09;14.90;;;13.73;;
9801;SDS011;4940;50.900;4.672;2023-07-09T14:20:38;12.48;;;11.27;;
9801;SDS011;4940;50.900;4.672;2023-07-09T14:23:09;13.88;;;12.77;;
9801;SDS011;4940;50.900;4.672;2023-07-09T14:25:38;10.40;;;8.55;;
9801;SDS011;4940;50.900;4.672;2023-07-09T14:28:08;10.93;;;8.50;;
9801;SDS011;4940;50.900;4.672;2023-07-09T14:30:37;8.88;;;7.57;;
9801;SDS011;4940;50.900;4.672;2023-07-09T14:33:08;8.68;;;7.88;;
9801;SDS011;4940;50.900;4.672;2023-07-09T14:35:40;8.20;;;7.25;;
9801;SDS011;4940;50.900;4.672;2023-07-09T14:38:14;8.15;;;7.35;;
9801;SDS011;4940;50.900;4.672;2023-07-09T14:40:43;8.43;;;6.18;;
9801;SDS011;4940;50.900;4.672;2023-07-09T14:43:11;7.07;;;6.40;;
9801;SDS011;4940;50.900;4.672;2023-07-09T14:45:38;9.32;;;6.43;;
9801;SDS011;4940;50.900;4.672;2023-07-09T14:48:09;7.72;;;6.35;;
9801;SDS011;4940;50.900;4.672;2023-07-09T14:50:37;7.25;;;6.03;;
9801;SDS011;4940;50.900;4.672;2023-07-09T14:53:05;7.45;;;5.50;;
9801;SDS011;4940;50.900;4.672;2023-07-09T14:55:39;6.10;;;5.50;;
9801;SDS011;4940;50.900;4.672;2023-07-09T14:58:13;5.63;;;5.03;;
9801;SDS011;4940;50.900;4.672;2023-07-09T15:00:42;6.05;;;5.40;;
9801;SDS011;4940;50.900;4.672;2023-07-09T15:03:12;5.88;;;5.28;;
9801;SDS011;4940;50.900;4.672;2023-07-09T15:05:44;6.20;;;5.20;;
9801;SDS011;4940;50.900;4.672;2023-07-09T15:08:14;6.93;;;6.20;;
9801;SDS011;4940;50.900;4.672;2023-07-09T15:10:42;5.75;;;5.25;;
9801;SDS011;4940;50.900;4.672;2023-07-09T15:13:14;9.38;;;5.60;;
9801;SDS011;4940;50.900;4.672;2023-07-09T15:15:44;5.90;;;5.30;;
9801;SDS011;4940;50.900;4.672;2023-07-09T15:18:12;6.40;;;5.13;;
9801;SDS011;4940;50.900;4.672;2023-07-09T15:20:42;5.75;;;4.82;;
9801;SDS011;4940;50.900;4.672;2023-07-09T15:23:13;6.90;;;5.78;;
9801;SDS011;4940;50.900;4.672;2023-07-09T15:25:41;6.90;;;5.03;;
9801;SDS011;4940;50.900;4.672;2023-07-09T15:28:09;7.07;;;5.47;;
9801;SDS011;4940;50.900;4.672;2023-07-09T15:30:37;7.47;;;5.95;;
9801;SDS011;4940;50.900;4.672;2023-07-09T15:33:05;5.68;;;5.10;;
9801;SDS011;4940;50.900;4.672;2023-07-09T15:35:36;5.32;;;4.82;;
9801;SDS011;4940;50.900;4.672;2023-07-09T15:38:05;7.38;;;4.95;;
9801;SDS011;4940;50.900;4.672;2023-07-09T15:40:52;5.72;;;4.53;;
9801;SDS011;4940;50.900;4.672;2023-07-09T15:43:19;4.97;;;4.15;;
9801;SDS011;4940;50.900;4.672;2023-07-09T15:45:47;5.43;;;4.93;;
9801;SDS011;4940;50.900;4.672;2023-07-09T15:48:20;5.30;;;4.63;;
9801;SDS011;4940;50.900;4.672;2023-07-09T15:50:48;5.20;;;4.70;;